createdAt,value
2019-04-19T00:01:02.906Z,99.99
2019-04-19T00:02:04.991Z,99.99
2019-04-19T00:03:00.278Z,99.99
2019-04-19T00:04:07.838Z,99.99
2019-04-19T00:05:03.066Z,99.99
2019-04-19T00:07:02.383Z,99.99
2019-04-19T00:08:11.669Z,99.99
2019-04-19T00:09:08.977Z,99.99
2019-04-19T00:14:18.964Z,99.99
2019-04-19T00:16:19.487Z,99.99
2019-04-19T00:17:23.414Z,99.99
2019-04-19T00:18:20.981Z,99.99
2019-04-19T00:19:33.217Z,99.99
2019-04-19T00:20:36.795Z,99.99
2019-04-19T00:21:34.760Z,99.99
2019-04-19T00:22:33.235Z,99.99
2019-04-19T00:26:20.869Z,99.99
2019-04-19T00:27:18.541Z,99.99
2019-04-19T00:28:25.937Z,99.99
2019-04-19T00:29:25.702Z,99.99
2019-04-19T00:30:36.396Z,99.99
2019-04-19T00:31:30.864Z,99.85
2019-04-19T00:32:33.885Z,99.27
2019-04-19T00:33:28.544Z,99.08
2019-04-19T00:34:18.841Z,99.99
2019-04-19T00:35:18.778Z,99.99
2019-04-19T00:36:19.868Z,99.99
2019-04-19T00:37:18.843Z,99.99
2019-04-19T00:38:35.710Z,99.99
2019-04-19T00:39:33.724Z,99.99
2019-04-19T00:40:36.355Z,99.99
2019-04-19T00:41:35.775Z,99.99
2019-04-19T00:42:35.690Z,99.99
2019-04-19T00:43:38.930Z,99.99
2019-04-19T00:44:39.905Z,99.99
2019-04-19T00:45:31.104Z,99.99
2019-04-19T00:46:35.444Z,99.99
2019-04-19T00:47:35.544Z,99.99
2019-04-19T00:48:39.108Z,99.99
2019-04-19T00:49:27.942Z,99.99
2019-04-19T00:50:29.391Z,99.99
2019-04-19T00:51:36.418Z,99.99
2019-04-19T00:52:38.337Z,99.99
2019-04-19T00:53:28.655Z,99.99
2019-04-19T00:54:28.016Z,99.99
2019-04-19T00:55:25.741Z,99.99
2019-04-19T00:56:31.232Z,99.99
2019-04-19T00:57:32.559Z,99.99
2019-04-19T00:58:24.970Z,99.99
2019-04-19T00:59:21.093Z,99.99
2019-04-19T01:00:25.812Z,99.99
2019-04-19T01:01:24.175Z,99.99
2019-04-19T01:02:21.427Z,99.99
2019-04-19T01:03:27.463Z,99.99
2019-04-19T01:04:25.052Z,99.99
2019-04-19T01:05:23.284Z,99.99
2019-04-19T01:06:21.943Z,99.99
2019-04-19T01:07:26.282Z,99.99
2019-04-19T01:08:23.219Z,99.99
2019-04-19T01:09:35.540Z,99.99
2019-04-19T01:10:35.086Z,99.99
2019-04-19T01:11:31.806Z,99.99
2019-04-19T01:12:29.071Z,99.99
2019-04-19T01:13:38.129Z,99.99
2019-04-19T01:14:30.074Z,99.99
2019-04-19T01:15:30.991Z,99.99
2019-04-19T01:16:30.977Z,99.99
2019-04-19T01:17:33.273Z,99.99
2019-04-19T01:18:29.716Z,99.99
2019-04-19T01:19:22.391Z,99.99
2019-04-19T01:20:20.475Z,99.99
2019-04-19T01:21:20.156Z,99.99
2019-04-19T01:22:23.940Z,99.99
2019-04-19T01:23:21.359Z,99.99
2019-04-19T01:24:26.488Z,99.99
2019-04-19T01:25:24.067Z,99.99
2019-04-19T01:26:21.413Z,99.99
2019-04-19T01:27:24.856Z,99.99
2019-04-19T01:28:23.889Z,99.99
2019-04-19T01:29:21.806Z,99.99
2019-04-19T01:30:26.612Z,99.99
2019-04-19T01:31:24.583Z,99.99
2019-04-19T01:32:22.597Z,99.99
2019-04-19T01:33:28.260Z,99.99
2019-04-19T01:34:23.968Z,99.99
2019-04-19T01:35:21.878Z,99.99
2019-04-19T01:36:27.729Z,99.99
2019-04-19T01:37:23.962Z,99.99
2019-04-19T01:38:21.162Z,99.99
2019-04-19T01:39:32.497Z,99.99
2019-04-19T01:40:35.341Z,99.99
2019-04-19T01:41:37.301Z,99.99
2019-04-19T01:42:36.729Z,99.99
2019-04-19T01:43:41.259Z,99.99
2019-04-19T01:44:41.212Z,99.99
2019-04-19T01:45:41.850Z,99.99
2019-04-19T01:46:38.982Z,99.99
2019-04-19T01:47:36.343Z,99.99
2019-04-19T01:48:39.501Z,99.99
2019-04-19T01:49:36.986Z,99.99
2019-04-19T01:50:38.376Z,99.99
2019-04-19T01:51:45.046Z,99.99
2019-04-19T01:52:47.621Z,99.99
2019-04-19T01:53:39.411Z,99.99
2019-04-19T01:54:35.824Z,99.99
2019-04-19T01:55:28.313Z,99.99
2019-04-19T01:56:22.036Z,99.99
2019-04-19T01:57:24.367Z,99.99
2019-04-19T01:58:22.635Z,99.99
2019-04-19T01:59:24.799Z,99.99
2019-04-19T02:00:29.171Z,99.99
2019-04-19T02:01:25.963Z,99.99
2019-04-19T02:02:25.750Z,99.99
2019-04-19T02:03:23.414Z,99.99
2019-04-19T02:04:25.220Z,99.99
2019-04-19T02:05:23.556Z,99.99
2019-04-19T02:06:28.773Z,99.99
2019-04-19T02:07:25.828Z,99.99
2019-04-19T02:08:22.728Z,99.99
2019-04-19T02:09:32.744Z,99.99
2019-04-19T02:10:37.753Z,99.99
2019-04-19T02:11:33.340Z,99.99
2019-04-19T02:12:34.555Z,99.99
2019-04-19T02:13:28.843Z,99.99
2019-04-19T02:14:27.033Z,99.99
2019-04-19T02:15:33.127Z,99.99
2019-04-19T02:16:23.848Z,99.99
2019-04-19T02:17:23.060Z,99.99
2019-04-19T02:18:24.588Z,99.99
2019-04-19T02:19:26.471Z,99.99
2019-04-19T02:20:22.286Z,99.99
2019-04-19T02:22:11.239Z,99.99
2019-04-19T02:23:08.296Z,99.99
2019-04-19T02:24:06.772Z,99.99
2019-04-19T02:25:12.583Z,99.99
2019-04-19T02:26:09.579Z,99.99
2019-04-19T02:27:09.146Z,99.99
2019-04-19T02:28:08.190Z,99.99
2019-04-19T02:29:11.231Z,99.99
2019-04-19T02:30:14.067Z,99.99
2019-04-19T02:31:27.606Z,99.99
2019-04-19T02:32:22.263Z,99.99
2019-04-19T02:33:32.686Z,99.99
2019-04-19T02:35:35.037Z,99.99
2019-04-19T02:36:35.651Z,99.99
2019-04-19T02:37:24.603Z,99.99
2019-04-19T02:38:36.660Z,99.99
2019-04-19T02:39:38.552Z,99.99
2019-04-19T02:41:53.360Z,99.99
2019-04-19T02:42:40.668Z,99.99
2019-04-19T02:43:37.867Z,99.99
2019-04-19T02:44:36.479Z,99.99
2019-04-19T02:45:29.112Z,99.99
2019-04-19T02:46:52.866Z,99.99
2019-04-19T02:47:42.182Z,99.99
2019-04-19T02:48:42.399Z,99.99
2019-04-19T02:49:35.943Z,99.99
2019-04-19T02:50:56.241Z,99.99
2019-04-19T02:51:33.042Z,99.99
2019-04-19T02:53:37.428Z,99.99
2019-04-19T02:54:38.211Z,99.99
2019-04-19T02:55:29.284Z,99.99
2019-04-19T02:56:46.763Z,99.99
2019-04-19T02:57:36.370Z,99.99
2019-04-19T02:58:38.359Z,99.99
2019-04-19T02:59:41.387Z,99.99
2019-04-19T03:00:40.179Z,99.99
2019-04-19T03:01:41.932Z,99.99
2019-04-19T03:02:42.045Z,99.99
2019-04-19T03:03:27.458Z,99.99
2019-04-19T03:05:36.560Z,99.99
2019-04-19T03:06:21.572Z,99.99
2019-04-19T03:07:09.141Z,99.99
2019-04-19T03:08:06.220Z,99.99
2019-04-19T03:09:07.131Z,99.99
2019-04-19T03:10:14.001Z,99.99
2019-04-19T03:11:19.823Z,99.99
2019-04-19T03:12:26.631Z,99.99
2019-04-19T03:13:21.713Z,99.99
2019-04-19T03:14:16.442Z,99.99
2019-04-19T03:15:18.998Z,99.99
2019-04-19T03:16:25.546Z,99.99
2019-04-19T03:17:24.573Z,99.99
2019-04-19T03:18:34.046Z,99.99
2019-04-19T03:19:18.192Z,99.99
2019-04-19T03:20:22.096Z,99.99
2019-04-19T03:21:27.780Z,99.99
2019-04-19T03:22:23.474Z,99.99
2019-04-19T03:23:18.849Z,99.99
2019-04-19T03:24:18.949Z,99.99
2019-04-19T03:25:18.358Z,99.99
2019-04-19T03:26:20.837Z,99.99
2019-04-19T03:27:15.323Z,99.99
2019-04-19T03:28:18.586Z,99.99
2019-04-19T03:29:12.168Z,99.99
2019-04-19T03:30:23.519Z,99.99
2019-04-19T03:31:38.349Z,99.99
2019-04-19T03:32:44.900Z,99.99
2019-04-19T03:34:16.215Z,99.99
2019-04-19T03:35:04.037Z,99.99
2019-04-19T03:36:05.627Z,99.99
2019-04-19T03:37:06.351Z,99.99
2019-04-19T03:38:08.520Z,99.99
2019-04-19T03:39:11.706Z,99.99
2019-04-19T03:40:19.167Z,99.99
2019-04-19T03:41:15.655Z,99.99
2019-04-19T03:42:12.960Z,99.99
2019-04-19T03:44:06.859Z,99.99
2019-04-19T03:45:08.629Z,99.99
2019-04-19T03:46:08.711Z,99.99
2019-04-19T03:47:09.510Z,99.99
2019-04-19T03:48:12.229Z,99.99
2019-04-19T03:49:13.565Z,99.99
2019-04-19T03:50:13.399Z,99.99
2019-04-19T03:51:41.306Z,99.99
2019-04-19T03:52:14.622Z,99.99
2019-04-19T03:53:09.178Z,99.99
2019-04-19T03:54:08.325Z,99.99
2019-04-19T03:55:09.626Z,99.99
2019-04-19T03:56:09.422Z,99.99
2019-04-19T03:57:04.745Z,99.99
2019-04-19T03:57:58.124Z,99.99
2019-04-19T03:58:52.446Z,99.99
2019-04-19T03:59:50.140Z,99.99
2019-04-19T04:00:50.339Z,99.99
2019-04-19T04:01:54.793Z,99.99
2019-04-19T04:02:51.252Z,99.99
2019-04-19T04:03:51.379Z,99.99
2019-04-19T04:04:58.262Z,99.99
2019-04-19T04:05:53.012Z,99.99
2019-04-19T04:06:50.540Z,99.99
2019-04-19T04:07:59.274Z,99.99
2019-04-19T04:08:55.282Z,99.99
2019-04-19T04:09:55.432Z,99.99
2019-04-19T04:12:00.488Z,99.99
2019-04-19T04:13:02.165Z,99.99
2019-04-19T04:14:04.819Z,99.99
2019-04-19T04:15:04.766Z,99.99
2019-04-19T04:16:03.525Z,99.99
2019-04-19T04:16:53.163Z,99.99
2019-04-19T04:17:50.306Z,99.99
2019-04-19T04:18:51.333Z,99.99
2019-04-19T04:19:50.479Z,99.99
2019-04-19T04:20:53.729Z,99.99
2019-04-19T04:22:54.466Z,99.99
2019-04-19T04:23:59.978Z,99.99
2019-04-19T04:24:58.235Z,99.99
2019-04-19T04:25:59.198Z,99.99
2019-04-19T04:27:03.069Z,99.99
2019-04-19T04:28:02.003Z,99.99
2019-04-19T04:29:03.531Z,99.99
2019-04-19T04:30:04.854Z,99.99
2019-04-19T04:31:00.857Z,99.99
2019-04-19T04:32:01.502Z,99.99
2019-04-19T04:35:09.794Z,99.99
2019-04-19T04:36:11.663Z,99.99
2019-04-19T04:37:09.907Z,99.99
2019-04-19T04:38:51.723Z,99.99
2019-04-19T04:39:51.434Z,99.99
2019-04-19T04:40:50.960Z,99.99
2019-04-19T04:41:58.353Z,99.99
2019-04-19T04:43:03.896Z,99.99
2019-04-19T04:44:07.931Z,99.99
2019-04-19T04:45:20.570Z,99.99
2019-04-19T04:46:20.061Z,99.99
2019-04-19T04:47:11.662Z,99.99
2019-04-19T04:48:05.345Z,99.99
2019-04-19T04:49:13.623Z,99.99
2019-04-19T04:51:14.417Z,99.99
2019-04-19T04:52:04.198Z,99.99
2019-04-19T04:52:52.708Z,99.99
2019-04-19T04:55:57.939Z,99.99
2019-04-19T04:57:02.536Z,99.99
2019-04-19T04:57:57.259Z,99.99
2019-04-19T04:58:52.463Z,99.99
2019-04-19T04:59:54.235Z,99.99
2019-04-19T05:00:58.924Z,99.99
2019-04-19T05:01:58.642Z,99.99
2019-04-19T05:03:03.745Z,99.99
2019-04-19T05:04:08.754Z,99.99
2019-04-19T05:05:11.397Z,99.99
2019-04-19T05:07:12.168Z,99.99
2019-04-19T05:08:14.212Z,99.99
2019-04-19T05:09:14.057Z,99.99
2019-04-19T05:10:09.324Z,99.99
2019-04-19T05:15:07.644Z,99.99
2019-04-19T05:16:16.168Z,99.99
2019-04-19T05:19:09.805Z,99.99
2019-04-19T05:20:41.013Z,99.99
2019-04-19T05:21:16.121Z,99.99
2019-04-19T05:24:25.344Z,99.99
2019-04-19T05:25:19.453Z,99.99
2019-04-19T05:26:26.628Z,99.99
2019-04-19T05:29:06.895Z,99.99
2019-04-19T05:29:55.821Z,99.99
2019-04-19T05:30:58.679Z,99.99
2019-04-19T05:31:56.130Z,99.99
2019-04-19T05:33:04.755Z,99.99
2019-04-19T05:34:17.695Z,99.99
2019-04-19T05:35:08.399Z,99.99
2019-04-19T05:38:07.197Z,99.99
2019-04-19T05:39:17.283Z,99.99
2019-04-19T05:40:09.479Z,99.99
2019-04-19T05:41:02.321Z,99.99
2019-04-19T05:42:05.197Z,99.99
2019-04-19T05:43:17.904Z,99.99
2019-04-19T05:44:21.035Z,99.99
2019-04-19T05:45:31.538Z,99.99
2019-04-19T05:47:13.465Z,99.99
2019-04-19T05:48:02.533Z,99.99
2019-04-19T05:51:43.783Z,99.99
2019-04-19T05:52:39.537Z,99.99
2019-04-19T05:53:27.940Z,99.99
2019-04-19T05:54:20.438Z,99.99
2019-04-19T05:55:20.462Z,99.99
2019-04-19T05:56:19.997Z,99.99
2019-04-19T05:57:35.965Z,99.99
2019-04-19T05:58:25.067Z,99.99
2019-04-19T05:59:33.358Z,99.99
2019-04-19T06:00:33.920Z,99.99
2019-04-19T06:01:36.471Z,99.99
2019-04-19T06:02:29.601Z,99.99
2019-04-19T06:03:27.244Z,99.99
2019-04-19T06:04:37.425Z,99.99
2019-04-19T06:05:44.526Z,99.99
2019-04-19T06:06:45.705Z,99.99
2019-04-19T06:07:37.389Z,99.99
2019-04-19T06:08:26.534Z,99.99
2019-04-19T06:09:19.689Z,99.99
2019-04-19T06:10:19.387Z,99.99
2019-04-19T06:11:26.226Z,99.99
2019-04-19T06:12:23.640Z,99.99
2019-04-19T06:13:20.686Z,99.99
2019-04-19T06:14:45.457Z,99.99
2019-04-19T06:15:42.880Z,99.99
2019-04-19T06:16:35.964Z,99.99
2019-04-19T06:17:36.798Z,99.99
2019-04-19T06:18:33.076Z,99.99
2019-04-19T06:19:35.299Z,99.99
2019-04-19T06:20:33.766Z,99.99
2019-04-19T06:21:39.224Z,99.99
2019-04-19T06:22:40.587Z,99.99
2019-04-19T06:23:44.173Z,99.99
2019-04-19T06:24:36.910Z,99.99
2019-04-19T06:25:46.495Z,99.99
2019-04-19T06:26:53.408Z,99.99
2019-04-19T06:27:53.075Z,99.99
2019-04-19T06:28:44.238Z,99.99
2019-04-19T06:29:46.205Z,99.99
2019-04-19T06:30:41.459Z,99.99
2019-04-19T06:31:39.568Z,99.99
2019-04-19T06:32:33.917Z,99.99
2019-04-19T06:33:37.620Z,99.99
2019-04-19T06:34:36.504Z,99.99
2019-04-19T06:35:32.662Z,99.99
2019-04-19T06:36:20.933Z,99.99
2019-04-19T06:37:24.750Z,99.99
2019-04-19T06:38:20.459Z,99.99
2019-04-19T06:39:20.495Z,99.99
2019-04-19T06:40:26.466Z,99.99
2019-04-19T06:41:23.246Z,99.99
2019-04-19T06:42:31.868Z,99.99
2019-04-19T06:43:35.099Z,99.99
2019-04-19T06:44:43.696Z,99.99
2019-04-19T06:45:35.609Z,99.99
2019-04-19T06:46:36.388Z,99.99
2019-04-19T06:47:28.768Z,99.95
2019-04-19T06:48:26.638Z,99.99
2019-04-19T06:49:25.090Z,99.99
2019-04-19T06:50:27.478Z,99.66
2019-04-19T06:51:28.509Z,98.80
2019-04-19T06:52:25.941Z,98.99
2019-04-19T06:53:20.942Z,98.42
2019-04-19T06:54:28.581Z,98.32
2019-04-19T06:55:26.804Z,98.61
2019-04-19T06:56:28.324Z,98.75
2019-04-19T06:57:27.282Z,97.99
2019-04-19T06:58:24.931Z,98.28
2019-04-19T06:59:39.437Z,97.99
2019-04-19T07:00:36.331Z,97.32
2019-04-19T07:01:31.372Z,97.42
2019-04-19T07:02:22.140Z,97.03
2019-04-19T07:03:21.614Z,97.23
2019-04-19T07:04:21.179Z,96.66
2019-04-19T07:05:33.816Z,97.03
2019-04-19T07:06:36.437Z,97.37
2019-04-19T07:07:36.525Z,96.89
2019-04-19T07:09:46.175Z,95.84
2019-04-19T07:11:46.045Z,95.36
2019-04-19T07:12:44.134Z,94.60
2019-04-19T07:13:35.972Z,94.26
2019-04-19T07:14:26.342Z,93.88
2019-04-19T07:16:04.236Z,92.54
2019-04-19T07:16:51.460Z,93.02
2019-04-19T07:17:37.597Z,92.93
2019-04-19T07:18:33.834Z,92.93
2019-04-19T07:19:38.951Z,92.45
2019-04-19T07:20:33.857Z,92.45
2019-04-19T07:21:37.213Z,92.30
2019-04-19T07:22:40.042Z,92.40
2019-04-19T07:23:43.771Z,92.02
2019-04-19T07:24:45.783Z,91.06
2019-04-19T07:26:00.082Z,91.06
2019-04-19T07:26:38.747Z,90.91
2019-04-19T07:27:35.875Z,91.35
2019-04-19T07:28:26.403Z,90.63
2019-04-19T07:29:22.116Z,90.53
2019-04-19T07:30:22.546Z,89.48
2019-04-19T07:31:21.848Z,89.48
2019-04-19T07:32:31.934Z,88.71
2019-04-19T07:33:38.943Z,89.43
2019-04-19T07:34:40.765Z,89.14
2019-04-19T07:35:47.345Z,88.66
2019-04-19T07:36:40.341Z,88.37
2019-04-19T07:37:39.819Z,88.37
2019-04-19T07:38:57.567Z,88.28
2019-04-19T07:39:48.162Z,87.99
2019-04-19T07:40:42.947Z,86.88
2019-04-19T07:41:37.663Z,87.17
2019-04-19T07:42:39.834Z,87.17
2019-04-19T07:43:36.541Z,86.60
2019-04-19T07:44:31.677Z,86.02
2019-04-19T07:45:30.944Z,86.60
2019-04-19T07:46:38.736Z,86.31
2019-04-19T07:47:36.761Z,86.12
2019-04-19T07:48:24.572Z,85.25
2019-04-19T07:49:23.357Z,85.25
2019-04-19T07:50:27.819Z,85.54
2019-04-19T07:51:28.639Z,85.01
2019-04-19T07:52:26.310Z,85.01
2019-04-19T07:53:31.291Z,84.63
2019-04-19T07:54:26.336Z,86.07
2019-04-19T07:55:22.736Z,85.11
2019-04-19T07:56:35.644Z,85.01
2019-04-19T07:59:02.599Z,84.25
2019-04-19T07:59:48.476Z,84.77
2019-04-19T08:02:49.668Z,83.23
2019-04-19T08:06:58.707Z,82.98
2019-04-19T08:08:06.696Z,82.31
2019-04-19T08:09:02.295Z,82.70
2019-04-19T08:09:53.572Z,81.84
2019-04-19T08:15:04.493Z,81.54
2019-04-19T08:15:54.661Z,81.84
2019-04-19T08:17:31.298Z,81.64
2019-04-19T08:27:33.210Z,79.19
2019-04-19T08:28:31.156Z,77.94
2019-04-19T08:29:35.253Z,78.23
2019-04-19T08:30:33.884Z,79.03
2019-04-19T08:31:25.118Z,79.42
2019-04-19T08:32:23.887Z,78.75
2019-04-19T08:33:23.925Z,77.88
2019-04-19T08:34:27.278Z,77.31
2019-04-19T08:35:23.990Z,77.31
2019-04-19T08:36:29.801Z,77.11
2019-04-19T08:38:28.672Z,76.73
2019-04-19T08:39:42.873Z,76.09
2019-04-19T08:40:44.024Z,75.90
2019-04-19T08:41:39.789Z,75.71
2019-04-19T08:42:41.553Z,75.90
2019-04-19T08:43:41.511Z,75.71
2019-04-19T08:44:38.589Z,75.32
2019-04-19T08:45:26.928Z,75.90
2019-04-19T08:46:24.375Z,75.71
2019-04-19T08:47:32.633Z,75.90
2019-04-19T08:48:33.531Z,76.19
2019-04-19T08:49:31.094Z,76.29
2019-04-19T08:50:24.518Z,74.50
2019-04-19T08:51:28.639Z,73.83
2019-04-19T08:52:29.117Z,73.63
2019-04-19T08:53:40.393Z,72.86
2019-04-19T08:54:49.106Z,73.25
2019-04-19T08:55:41.828Z,73.63
2019-04-19T08:57:27.538Z,73.09
2019-04-19T08:58:47.997Z,73.19
2019-04-19T08:59:50.891Z,72.80
2019-04-19T09:00:52.008Z,71.88
2019-04-19T09:01:44.517Z,71.88
2019-04-19T09:02:44.112Z,70.72
2019-04-19T09:03:49.067Z,70.43
2019-04-19T09:04:44.015Z,69.95
2019-04-19T09:05:42.156Z,71.69
2019-04-19T09:09:51.908Z,70.82
2019-04-19T09:10:47.065Z,70.92
2019-04-19T09:11:49.835Z,70.92
2019-04-19T09:12:47.230Z,69.89
2019-04-19T09:13:47.975Z,68.99
2019-04-19T09:14:48.327Z,69.67
2019-04-19T09:15:39.539Z,70.05
2019-04-19T09:16:56.053Z,70.53
2019-04-19T09:18:08.866Z,70.43
2019-04-19T09:18:50.428Z,70.76
2019-04-19T09:20:00.989Z,69.22
2019-04-19T09:20:48.047Z,68.00
2019-04-19T09:21:39.496Z,68.74
2019-04-19T09:22:43.877Z,69.45
2019-04-19T09:23:37.269Z,68.58
2019-04-19T09:24:37.021Z,68.58
2019-04-19T09:25:37.090Z,69.09
2019-04-19T09:26:43.758Z,68.90
2019-04-19T09:27:56.290Z,67.88
2019-04-19T09:29:10.881Z,67.49
2019-04-19T09:29:45.429Z,67.97
2019-04-19T09:30:42.394Z,66.62
2019-04-19T09:31:35.974Z,68.65
2019-04-19T09:32:29.197Z,67.97
2019-04-19T09:33:30.824Z,68.29
2019-04-19T09:34:27.058Z,66.11
2019-04-19T09:35:31.065Z,65.95
2019-04-19T09:36:34.703Z,64.08
2019-04-19T09:37:41.670Z,62.37
2019-04-19T09:38:39.644Z,61.79
2019-04-19T09:39:42.574Z,59.39
2019-04-19T09:41:59.224Z,54.82
2019-04-19T09:43:02.855Z,53.71
2019-04-19T09:44:02.953Z,54.10
2019-04-19T09:44:56.311Z,52.86
2019-04-19T09:45:51.616Z,52.59
2019-04-19T09:46:52.899Z,51.33
2019-04-19T09:47:52.469Z,49.37
2019-04-19T09:49:09.614Z,48.83
2019-04-19T09:50:04.367Z,47.41
2019-04-19T09:51:07.569Z,46.07
2019-04-19T09:52:11.409Z,46.00
2019-04-19T09:53:25.008Z,44.63
2019-04-19T09:54:16.240Z,45.07
2019-04-19T09:55:17.272Z,44.87
2019-04-19T09:56:12.289Z,44.19
2019-04-19T09:57:05.410Z,44.31
2019-04-19T09:58:14.235Z,44.83
2019-04-19T09:59:03.008Z,46.70
2019-04-19T10:00:03.292Z,46.70
2019-04-19T10:00:54.286Z,46.02
2019-04-19T10:02:58.561Z,45.98
2019-04-19T10:03:59.112Z,45.05
2019-04-19T10:04:52.775Z,45.73
2019-04-19T10:05:56.127Z,43.92
2019-04-19T10:06:53.503Z,43.43
2019-04-19T10:07:52.767Z,43.29
2019-04-19T10:08:53.899Z,43.90
2019-04-19T10:09:55.404Z,44.81
2019-04-19T10:11:53.076Z,45.49
2019-04-19T10:12:53.858Z,44.73
2019-04-19T10:14:53.645Z,44.19
2019-04-19T10:16:53.020Z,46.39
2019-04-19T10:19:04.195Z,43.04
2019-04-19T10:19:53.185Z,43.63
2019-04-19T10:20:54.641Z,43.99
2019-04-19T10:21:54.102Z,45.71
2019-04-19T10:23:54.088Z,44.78
2019-04-19T10:24:54.342Z,44.76
2019-04-19T10:25:57.591Z,44.38
2019-04-19T10:26:54.543Z,44.56
2019-04-19T10:27:53.609Z,45.12
2019-04-19T10:28:53.601Z,44.29
2019-04-19T10:29:53.739Z,43.80
2019-04-19T10:30:54.796Z,45.05
2019-04-19T10:31:55.105Z,43.65
2019-04-19T10:33:58.078Z,42.77
2019-04-19T10:34:54.608Z,43.04
2019-04-19T10:35:53.946Z,43.51
2019-04-19T10:36:56.774Z,43.57
2019-04-19T10:37:55.557Z,42.01
2019-04-19T10:38:56.567Z,42.03
2019-04-19T10:39:55.230Z,41.93
2019-04-19T10:40:55.472Z,41.09
2019-04-19T10:41:54.472Z,40.78
2019-04-19T10:42:54.329Z,40.70
2019-04-19T10:44:03.938Z,39.96
2019-04-19T10:44:54.393Z,40.78
2019-04-19T10:45:54.442Z,39.45
2019-04-19T10:46:54.574Z,41.27
2019-04-19T10:47:55.758Z,42.40
2019-04-19T10:50:06.675Z,41.02
2019-04-19T10:50:55.168Z,40.63
2019-04-19T10:52:37.422Z,39.70
2019-04-19T10:53:38.624Z,39.15
2019-04-19T10:54:45.350Z,39.25
2019-04-19T10:55:38.208Z,39.74
2019-04-19T10:56:38.519Z,39.62
2019-04-19T10:57:38.938Z,39.80
2019-04-19T11:01:39.030Z,37.25
2019-04-19T11:03:39.070Z,37.46
2019-04-19T11:04:38.638Z,36.74
2019-04-19T11:05:38.717Z,36.54
2019-04-19T11:08:38.409Z,36.82
2019-04-19T11:10:38.242Z,35.10
2019-04-19T11:13:38.399Z,32.98
2019-04-19T11:15:38.502Z,33.94
2019-04-19T11:16:39.551Z,34.74
2019-04-19T11:17:38.589Z,34.87
2019-04-19T11:18:39.421Z,34.08
2019-04-19T11:19:49.733Z,33.91
2019-04-19T11:20:46.400Z,33.72
2019-04-19T11:21:38.783Z,33.26
2019-04-19T11:22:39.840Z,32.97
2019-04-19T11:23:39.792Z,33.00
2019-04-19T11:24:39.196Z,34.16
2019-04-19T11:25:40.273Z,34.72
2019-04-19T11:26:39.061Z,35.34
2019-04-19T11:27:39.418Z,34.87
2019-04-19T11:28:39.164Z,34.39
2019-04-19T11:31:39.551Z,37.86
2019-04-19T11:33:41.273Z,36.82
2019-04-19T11:34:40.942Z,38.57
2019-04-19T11:35:41.292Z,39.39
2019-04-19T11:41:41.023Z,36.18
2019-04-19T11:44:39.990Z,37.23
2019-04-19T11:57:20.645Z,33.87
2019-04-19T12:00:47.814Z,32.45
2019-04-19T12:01:46.556Z,32.52
2019-04-19T12:03:47.968Z,32.52
2019-04-19T12:04:48.119Z,33.07
2019-04-19T12:05:47.240Z,34.31
2019-04-19T12:06:48.101Z,33.10
2019-04-19T12:07:48.311Z,34.00
2019-04-19T12:57:17.940Z,32.67
2019-04-19T12:58:17.577Z,33.75
2019-04-19T12:59:19.712Z,32.32
2019-04-19T13:00:18.095Z,31.96
2019-04-19T13:01:17.801Z,32.01
2019-04-19T13:02:17.898Z,32.08
2019-04-19T13:03:18.019Z,33.23
2019-04-19T13:05:18.234Z,35.46
2019-04-19T13:06:17.895Z,34.72
2019-04-19T13:07:17.451Z,36.21
2019-04-19T13:10:18.208Z,35.41
2019-04-19T13:11:18.709Z,35.26
2019-04-19T13:12:17.470Z,34.97
2019-04-19T13:13:18.167Z,35.00
2019-04-19T13:14:17.605Z,33.75
2019-04-19T13:15:17.813Z,33.00
2019-04-19T13:16:18.579Z,32.31
2019-04-19T13:17:18.089Z,32.86
2019-04-19T13:18:18.274Z,33.64
2019-04-19T13:19:20.591Z,32.89
2019-04-19T13:20:24.222Z,32.98
2019-04-19T13:21:17.947Z,32.89
2019-04-19T13:22:18.613Z,32.49
2019-04-19T13:23:18.051Z,32.51
2019-04-19T13:24:18.357Z,32.41
2019-04-19T13:25:18.810Z,32.21
2019-04-19T13:26:18.202Z,32.28
2019-04-19T13:27:19.115Z,32.54
2019-04-19T13:28:19.542Z,32.74
2019-04-19T13:29:19.607Z,33.25
2019-04-19T13:30:27.763Z,33.74
2019-04-19T13:31:18.744Z,32.97
2019-04-19T13:32:19.674Z,32.10
2019-04-19T13:33:18.699Z,31.06
2019-04-19T13:34:19.021Z,31.24
2019-04-19T13:35:19.199Z,31.56
2019-04-19T13:36:19.370Z,31.83
2019-04-19T13:37:18.920Z,31.51
2019-04-19T13:38:19.236Z,32.81
2019-04-19T13:39:21.420Z,32.62
2019-04-19T13:40:19.949Z,32.84
2019-04-19T13:41:18.929Z,32.64
2019-04-19T13:42:19.098Z,32.57
2019-04-19T13:43:19.030Z,31.60
2019-04-19T13:44:19.080Z,32.05
2019-04-19T13:45:26.076Z,32.26
2019-04-19T13:46:19.180Z,31.60
2019-04-19T13:47:20.442Z,31.13
2019-04-19T13:48:19.279Z,32.39
2019-04-19T13:49:19.329Z,32.39
2019-04-19T13:50:26.078Z,31.42
2019-04-19T13:51:20.593Z,30.87
2019-04-19T13:52:20.616Z,32.45
2019-04-19T13:53:20.459Z,32.98
2019-04-19T13:54:20.765Z,32.82
2019-04-19T13:55:20.896Z,32.07
2019-04-19T13:56:20.501Z,31.54
2019-04-19T13:57:19.783Z,32.31
2019-04-19T13:58:19.966Z,32.71
2019-04-19T13:59:20.107Z,32.71
2019-04-19T14:00:20.433Z,32.14
2019-04-19T14:01:20.798Z,32.33
2019-04-19T14:02:20.640Z,32.61
2019-04-19T14:03:21.344Z,32.59
2019-04-19T14:04:20.074Z,33.94
2019-04-19T14:05:20.124Z,33.44
2019-04-19T14:06:20.177Z,33.69
2019-04-19T14:07:21.142Z,33.43
2019-04-19T14:08:21.549Z,33.64
2019-04-19T14:09:21.103Z,33.58
2019-04-19T14:10:21.235Z,33.70
2019-04-19T14:11:21.406Z,34.80
2019-04-19T14:12:20.957Z,35.19
2019-04-19T14:13:21.129Z,34.90
2019-04-19T14:14:20.573Z,33.46
2019-04-19T14:15:20.624Z,32.79
2019-04-19T14:16:21.614Z,32.36
2019-04-19T14:17:21.960Z,31.46
2019-04-19T14:18:20.775Z,31.03
2019-04-19T14:19:20.825Z,30.41
2019-04-19T14:20:32.351Z,31.56
2019-04-19T14:21:22.072Z,32.48
2019-04-19T14:22:21.321Z,33.39
2019-04-19T14:23:21.692Z,36.87
2019-04-19T14:24:21.692Z,36.61
2019-04-19T14:25:21.200Z,35.75
2019-04-19T14:26:33.871Z,35.85
2019-04-19T14:27:21.515Z,37.89
2019-04-19T14:28:21.273Z,38.98
2019-04-19T14:29:21.439Z,41.24
2019-04-19T14:30:21.548Z,43.26
2019-04-19T14:31:21.959Z,43.65
2019-04-19T14:32:21.468Z,43.65
2019-04-19T14:33:21.527Z,43.29
2019-04-19T14:34:21.561Z,43.48
2019-04-19T14:35:21.756Z,43.38
2019-04-19T14:36:21.994Z,42.90
2019-04-19T14:38:34.361Z,43.38
2019-04-19T14:39:34.517Z,42.94
2019-04-19T14:40:35.376Z,42.28
2019-04-19T14:42:34.542Z,39.90
2019-04-19T14:43:34.560Z,38.08
2019-04-19T14:44:35.717Z,38.35
2019-04-19T14:45:34.649Z,37.95
2019-04-19T14:46:34.694Z,38.35
2019-04-19T14:47:34.930Z,37.35
2019-04-19T14:48:38.349Z,37.01
2019-04-19T14:50:46.231Z,34.20
2019-04-19T14:51:36.984Z,35.24
2019-04-19T14:52:34.985Z,35.72
2019-04-19T14:53:36.408Z,34.23
2019-04-19T14:59:05.442Z,32.92
2019-04-19T15:00:05.488Z,33.75
2019-04-19T15:01:08.896Z,34.90
2019-04-19T15:02:06.905Z,35.91
2019-04-19T15:03:05.631Z,36.61
2019-04-19T15:04:06.717Z,36.61
2019-04-19T15:05:05.728Z,35.17
2019-04-19T15:07:05.818Z,33.59
2019-04-19T15:08:06.397Z,32.72
2019-04-19T15:09:05.912Z,33.29
2019-04-19T15:11:07.221Z,32.87
2019-04-19T15:13:07.095Z,29.80
2019-04-19T15:15:06.272Z,29.92
2019-04-19T15:16:06.545Z,30.65
2019-04-19T15:17:07.173Z,30.91
2019-04-19T15:18:06.600Z,31.39
2019-04-19T15:19:06.683Z,31.51
2019-04-19T15:20:06.442Z,31.97
2019-04-19T15:21:11.946Z,32.81
2019-04-19T15:22:06.540Z,32.71
2019-04-19T15:23:06.729Z,32.61
2019-04-19T15:24:06.636Z,33.67
2019-04-19T15:25:06.748Z,35.85
2019-04-19T15:26:06.797Z,35.27
2019-04-19T15:27:07.268Z,36.25
2019-04-19T15:28:06.887Z,35.25
2019-04-19T15:29:07.061Z,36.61
2019-04-19T15:30:07.278Z,37.63
2019-04-19T15:31:08.128Z,38.02
2019-04-19T15:32:08.306Z,36.72
2019-04-19T15:33:07.083Z,37.96
2019-04-19T15:34:07.118Z,37.18
2019-04-19T15:35:07.756Z,37.71
2019-04-19T15:36:07.941Z,38.92
2019-04-19T15:37:07.415Z,38.45
2019-04-19T15:38:07.862Z,38.00
2019-04-19T15:39:08.081Z,36.18
2019-04-19T15:40:07.686Z,34.26
2019-04-19T15:41:08.169Z,34.26
2019-04-19T15:42:08.585Z,33.69
2019-04-19T15:43:08.727Z,33.74
2019-04-19T15:44:08.569Z,35.37
2019-04-19T15:45:07.645Z,35.02
2019-04-19T15:46:09.380Z,36.43
2019-04-19T15:47:08.441Z,35.78
2019-04-19T15:48:08.961Z,35.73
2019-04-19T15:49:08.216Z,39.08